Hoppa till innehåll

METAR väder och rapporter - ESGG

Nedan listas information från vald flygplats. Andra METARs finns längre ned på sidan. Kontakta oss om någon saknas eller skriv in egen ICAO-kod.

Coded METAR: 2021/12/07 15:50 ESGG 071550Z 11008KT 9999 -SN SCT027 BKN032 M04/M07 Q1012

Weather Report @ ESGG

Issued: 7th Dec 2021 at 16:50 CET

Wind: gentle breeze from East-Southeast (110 degrees) at 8 knots (9 mph, 15 kph, 4 mps, Force 3)
Visibility: 10km or more
Weather: light snow
Cloud: scattered at 2700 feet
Cloud: broken at 3200 feet
Temperature: 25F / -4C
Dewpoint: 19F / -7C
Humidity: 80%
Pressure: 1012 hPa

Coded TAF: 2021/12/07 12:15 TAF TAF ESGG 071130Z 0712/0812 12008KT 9999 OVC030 PROB40 0806/0812 BKN012

Weather Forecast @ ESGG

Issued: 7th Dec 2021 at 13:15 CET

Valid : 7th Dec 13:00 until 8th Dec 13:00 CET

13:00 CET
Wind: gentle breeze from East-Southeast (120 degrees) at 8 knots (9 mph, 15 kph, 4 mps, Force 3)
Visibility: 10km or more
Cloud: overcast at 3000 feet

07:00 CET to 13:00 CET
there is a 40% chance of:

Cloud: broken at 1200 feet

Internet delivery of weather data is not secure or reliable enough for operational purposes.

NEVER RELY ON THE OUTPUT OF THIS SCRIPT TO MAKE DECISIONS ABOUT ANYTHING IN WHICH THE WEATHER FORECAST AND ITS INTERPRETATION COULD BE AN ISSUE OF SAFETY.

Andra intressanta METARs

Klicka på önskad rubrik nedan för att visa nuvarande väder för den platsen.

Avstånd från stationen: NO 27kmESGG - Göteborg (Landvetter)
Uppdaterad: 2021-12-07 16:50
 Vind från OSO
Vind: OSO 15 km/h
Temperatur: -4°C
Vindavkylning: -9°C
Daggpunkt: -7°C
Luftfuktighet: 80%
Barometer: 1012 hPa
Summering: Light Snow
Moln: Övervägande molnigt
Sikt: 10 km
Molninformation: Delvis molnigt 823 m
Övervägande molnigt 975 m
2021/12/07 15:50 ESGG 071550Z 11008KT 9999 -SN SCT027 BKN032 M04/M07 Q1012
Light snow, Övervägande molnigt
Light snow
Övervägande molnigt
  Visa detaljer för Göteborg (Landvetter)
Avstånd från stationen: N 28kmESGP - Göteborg (Säve)
Uppdaterad: 2021-12-07 17:16
 
unable to load ESGP data RC=404 Not Found
unable to load ESGP data RC=404 Not Found
  Visa detaljer för Göteborg (Säve)
Avstånd från stationen: NO 419kmESSA - Stockholm (Arlanda)
Uppdaterad: 2021-12-07 16:50
 Vind från N
Vind: N 4 km/h
Temperatur: -15°C
Daggpunkt: -17°C
Luftfuktighet: 85%
Barometer: 1017 hPa
Summering: Klart
Sikt: mer än 10 km
2021/12/07 15:50 ESSA 071550Z 35002KT CAVOK M15/M17 Q1017 NOSIG
Klart
Klart
  Visa detaljer för Stockholm (Arlanda)
Avstånd från stationen: ONO 404kmESSB - Stockholm (Bromma)
Uppdaterad: 2021-12-07 16:50
 Vind från calm
Vind: Vindstilla
Temperatur: -14°C
Daggpunkt: -15°C
Luftfuktighet: 92%
Barometer: 1018 hPa
Summering: Klart
Sikt: mer än 10 km
2021/12/07 15:50 ESSB 071550Z 00000KT CAVOK M14/M15 Q1018
Klart
Klart
  Visa detaljer för Stockholm (Bromma)
Avstånd från stationen: ONO 323kmESKN - Stockholm (Skavsta)
Uppdaterad: 2021-12-07 16:50
 Vind från NO
Vind: NO 6 km/h
Temperatur: -15°C
Daggpunkt: -17°C
Luftfuktighet: 85%
Barometer: 1017 hPa
Summering: Klart
Sikt: mer än 10 km
2021/12/07 15:50 ESKN 071550Z 04003KT CAVOK M15/M17 Q1017
Klart
Klart
  Visa detaljer för Stockholm (Skavsta)
Avstånd från stationen: SSO 238kmESMS - Malmö flygplats (Sturup)
Uppdaterad: 2021-12-07 16:50
 Vind från SO
Vind: SO 17 km/h
Temperatur: 1°C
Vindavkylning: -3°C
Daggpunkt: -5°C
Luftfuktighet: 65%
Barometer: 1012 hPa
Moln: Genommulet
Sikt: 10 km
Molninformation: Genommulet 823 m
2021/12/07 15:50 ESMS 071550Z 13009KT 9999 OVC027 01/M05 Q1012
Genommulet
Genommulet
  Visa detaljer för Malmö flygplats (Sturup)
Avstånd från stationen: O 382kmESSV - Visby flygplats
Uppdaterad: 2021-12-07 16:50
 Vind från SSO
Vind: SSO 9 km/h
Temperatur: -10°C
Vindavkylning: -15°C
Daggpunkt: -11°C
Luftfuktighet: 92%
Barometer: 1017 hPa
Summering: Klart
Sikt: mer än 10 km
2021/12/07 15:50 ESSV 071550Z 15005KT CAVOK M10/M11 Q1017
Klart
Klart
  Visa detaljer för Visby flygplats
Avstånd från stationen: NNO 92kmESGT - Trollhättan
Uppdaterad: 2021-12-07 15:50
Ej aktuell
 Vind från SSO
Vind: SSO 13 km/h
Temperatur: -3°C
Vindavkylning: -7°C
Daggpunkt: -6°C
Luftfuktighet: 80%
Barometer: 1014 hPa
Summering: Light Snow
Moln: Övervägande molnigt
Sikt: 10 km
Molninformation: Övervägande molnigt 1219 m
2021/12/07 14:50 ESGT 071450Z 15007KT 9999 -SN BKN040 M03/M06 Q1014
Light snow, Övervägande molnigt
Light snow
Övervägande molnigt
  Visa detaljer för Trollhättan
Avstånd från stationen: ONO 129kmESGJ - Jönköpings flygplats
Uppdaterad: 2021-12-07 15:50
Ej aktuell
 Vind från SO
Vind: SO 15 km/h
Temperatur: -5°C
Vindavkylning: -11°C
Daggpunkt: -7°C
Luftfuktighet: 86%
Barometer: 1014 hPa
Summering: Snow Grains
Moln: Övervägande molnigt
Sikt: 10 km
Molninformation: Övervägande molnigt 1006 m
2021/12/07 14:50 ESGJ 071450Z 13008KT 9999 SG BKN033 M05/M07 Q1014 RESG
Snow grains, Övervägande molnigt
Snow grains
Övervägande molnigt
  Visa detaljer för Jönköpings flygplats
Avstånd från stationen: NNO 229kmESOK - Karlstad
Uppdaterad: 2021-12-07 15:50
Ej aktuell
 Vind från ONO
Vind: ONO 11 km/h
Temperatur: -11°C
Vindavkylning: -17°C
Daggpunkt: -12°C
Luftfuktighet: 92%
Barometer: 1015 hPa
Moln: Övervägande molnigt
Sikt: 10 km
Molninformation: Övervägande molnigt 1311 m
2021/12/07 14:50 ESOK 071450Z 07006KT 9999 BKN043 M11/M12 Q1015
Övervägande molnigt
Övervägande molnigt
  Visa detaljer för Karlstad
Avstånd från stationen: N 643kmESNZ - Östersund (Frösön)
Uppdaterad: 2021-12-07 16:50
 Vind från SO
Vind: SO 26 km/h
Temperatur: -11°C
Vindavkylning: -21°C
Daggpunkt: -15°C
Luftfuktighet: 73%
Barometer: 1010 hPa
Summering: Light Snow
Moln: Genommulet
Sikt: 10 km
Molninformation: Genommulet 1036 m
2021/12/07 15:50 ESNZ 071550Z 14014KT 9999 -SN OVC034 M11/M15 Q1010
Light snow, Genommulet
Light snow
Genommulet
  Visa detaljer för Östersund (Frösön)
Avstånd från stationen: SSO 216kmEKCH - Köpenhamn (Kastrup)
Uppdaterad: 2021-12-07 09:20
Ej aktuell
 
2021/12/07 08:20

  Visa detaljer för Köpenhamn (Kastrup)
Avstånd från stationen: SV 263kmEKBI - Billund Airport
Uppdaterad: 2021-12-07 02:20
Ej aktuell
 
2021/12/07 01:20

  Visa detaljer för Billund Airport
Avstånd från stationen: N 302kmENGM - Oslo (Gardermoen)
Uppdaterad: 2021-12-07 16:50
 Vind från NNO
Vind: NNO 6 km/h
Temperatur: -11°C
Daggpunkt: -13°C
Luftfuktighet: 85%
Barometer: 1014 hPa
Summering: Skurar i närheten
Moln: Genommulet
Sikt: 10 km
Molninformation: Genommulet 274 m
2021/12/07 15:50 ENGM 071550Z 03003KT 9999 VCSH OVC009 M11/M13 Q1014 TEMPO BKN012
Nearby showers, Genommulet
Nearby showers
Genommulet
  Visa detaljer för Oslo (Gardermoen)
Avstånd från stationen: NO 540kmEFMA - Mariehamn / Åland
Uppdaterad: 2021-12-07 16:50
 Vind från N
Vind: N 2 km/h
Temperatur: -15°C
Daggpunkt: -16°C
Luftfuktighet: 92%
Barometer: 1018 hPa
Summering: Klart
Sikt: mer än 10 km
2021/12/07 15:50 EFMA 071550Z AUTO 01001KT CAVOK M15/M16 Q1018
Klart
Klart
  Visa detaljer för Mariehamn / Åland
Avstånd från stationen: S 558kmEDDT - Berlin (Tegel), Germany
Uppdaterad: 2021-12-07 17:16
 
unable to load EDDT data RC=404 Not Found
unable to load EDDT data RC=404 Not Found
  Visa detaljer för Berlin (Tegel), Germany
Avstånd från stationen: SV 737kmEHAM - Amsterdam (Schiphol)
Uppdaterad: 2021-12-07 16:55
 Vind från SO
Vind: SO 26 km/h
Temperatur: 5°C
Vindavkylning: 1°C
Daggpunkt: 2°C
Luftfuktighet: 81%
Barometer: 1001 hPa
Summering: Klart
Sikt: mer än 10 km
2021/12/07 15:55 EHAM 071555Z 14014KT 110V180 CAVOK 05/02 Q1001 NOSIG
Klart
Klart
  Visa detaljer för Amsterdam (Schiphol)
Avstånd från stationen: ONO 808kmEFHK - Helsingfors (Vantaa)
Uppdaterad: 2021-12-07 16:50
 Vind från NNV
Vind: NNV 9 km/h
Temperatur: -16°C
Vindavkylning: -22°C
Daggpunkt: -18°C
Luftfuktighet: 85%
Barometer: 1017 hPa
Moln: Övervägande molnigt
Sikt: 10 km
Molninformation: Några få moln 975 m
Övervägande molnigt 1341 m
2021/12/07 15:50 EFHK 071550Z 33005KT 9999 FEW032 BKN044 M16/M18 Q1017 NOSIG
Övervägande molnigt
Övervägande molnigt
  Visa detaljer för Helsingfors (Vantaa)
Avstånd från stationen: SSV 537kmEDDW - Bremen
Uppdaterad: 2021-12-07 16:50
 Vind från SO
Vind: SO 15 km/h
Temperatur: 4°C
Vindavkylning: 1°C
Daggpunkt: 3°C
Luftfuktighet: 93%
Barometer: 1007 hPa
Moln: Övervägande molnigt
Sikt: 8 km
Molninformation: Övervägande molnigt 244 m
Övervägande molnigt 366 m
2021/12/07 15:50 EDDW 071550Z 13008KT 8000 BKN008 BKN012 04/03 Q1007 TEMPO BKN010
Övervägande molnigt
Övervägande molnigt
  Visa detaljer för Bremen
Avstånd från stationen: SSV 861kmEDDF - Frankfurt am Main
Uppdaterad: 2021-12-07 16:50
 Vind från SO
Vind: SO 9 km/h
Temperatur: 3°C
Vindavkylning: 0°C
Daggpunkt: 0°C
Luftfuktighet: 81%
Barometer: 1009 hPa
Moln: Delvis molnigt
Sikt: 10 km
Molninformation: Delvis molnigt 1128 m
2021/12/07 15:50 EDDF 071550Z 14005KT 9999 SCT037 03/M00 Q1009 NOSIG
Delvis molnigt
Delvis molnigt
  Visa detaljer för Frankfurt am Main
Avstånd från stationen: SV 880kmEBBR - Bryssel international
Uppdaterad: 2021-12-07 16:50
 Vind från SSO
Vind: SSO 22 km/h
Temperatur: 5°C
Vindavkylning: 1°C
Daggpunkt: 2°C
Luftfuktighet: 81%
Barometer: 1001 hPa
Moln: Några få moln
Sikt: 10 km
Molninformation: Några få moln 549 m
2021/12/07 15:50 EBBR 071550Z 15012KT 9999 FEW018 05/02 Q1001 BECMG BKN012
Några få moln
Några få moln
  Visa detaljer för Bryssel international
Avstånd från stationen: SV 738kmEHAM - Amsterdam (Schiphol)
Uppdaterad: 2021-12-07 16:55
 Vind från SO
Vind: SO 26 km/h
Temperatur: 5°C
Vindavkylning: 1°C
Daggpunkt: 2°C
Luftfuktighet: 81%
Barometer: 1001 hPa
Summering: Klart
Sikt: mer än 10 km
2021/12/07 15:55 EHAM 071555Z 14014KT 110V180 CAVOK 05/02 Q1001 NOSIG
Klart
Klart
  Visa detaljer för Amsterdam (Schiphol)
Avstånd från stationen: SV 1044kmEGLL - London (Heathrow)
Uppdaterad: 2021-12-07 13:50
Ej aktuell
 Vind från SSO
Vind: SSO 26 km/h
Temperatur: 7°C
Vindavkylning: 3°C
Daggpunkt: 6°C
Luftfuktighet: 93%
Barometer: 993 hPa
Summering: Lätt regn
Moln: Genommulet
Sikt: 10 km
Molninformation: Genommulet 335 m
2021/12/07 12:50 EGLL 071250Z AUTO 15014KT 9999 -RA OVC011 07/06 Q0993 TEMPO 16020G30KT
Lätt regn, Genommulet
Lätt regn
Genommulet
  Visa detaljer för London (Heathrow)
Avstånd från stationen: SV 1132kmLFPG - Paris (Charles de Gaulle)
Uppdaterad: 2021-12-07 17:00
 Vind från SSO
Vind: SSO 26 km/h
Temperatur: 7°C
Vindavkylning: 3°C
Daggpunkt: 4°C
Luftfuktighet: 81%
Barometer: 999 hPa
Summering: Klart
Sikt: mer än 10 km
2021/12/07 16:00 LFPG 071600Z 15014KT CAVOK 07/04 Q0999 NOSIG
Klart
Klart
  Visa detaljer för Paris (Charles de Gaulle)
Avstånd från stationen: SSV 1142kmLSZH - Zürich Airport
Uppdaterad: 2021-12-07 16:50
 Vind från SO
Vind: SO 11 km/h
Temperatur: 2°C
Vindavkylning: -1°C
Daggpunkt: 0°C
Luftfuktighet: 87%
Barometer: 1010 hPa
Summering: Klart
Sikt: mer än 10 km
2021/12/07 15:50 LSZH 071550Z 13006KT CAVOK 02/M00 Q1010 NOSIG
Klart
Klart
  Visa detaljer för Zürich Airport
Avstånd från stationen: S 1749kmLIRF - Rome Airport (Fiumicino - Leonardo da Vinci)
Uppdaterad: 2021-12-07 16:50
 Vind från NV
Vind: NV 11 km/h
Temperatur: 9°C
Vindavkylning: 7°C
Daggpunkt: 3°C
Luftfuktighet: 66%
Barometer: 1013 hPa
Summering: Klart
Sikt: mer än 10 km
2021/12/07 15:50 LIRF 071550Z 31006KT CAVOK 09/03 Q1013 NOSIG
Klart
Klart
  Visa detaljer för Rome Airport (Fiumicino - Leonardo da Vinci)
Avstånd från stationen: SO 2679kmLTAI - Antalya
Uppdaterad: 2021-12-07 16:50
 Vind från SSV
Vind: SSV 37 km/h
Temperatur: 14°C
Daggpunkt: 11°C
Luftfuktighet: 82%
Barometer: 1003 hPa
Summering: Regnskurar
Moln: Övervägande molnigt
Sikt: 4 km
Molninformation: Några få moln 610 m
Övervägande molnigt 914 m
2021/12/07 15:50 LTAI 071550Z 20020KT 4000 SHRA FEW020CB BKN030 14/11 Q1003 RETSRA BECMG 9999 NSW
Rain showers, Övervägande molnigt
Rain showers
Övervägande molnigt
  Visa detaljer för Antalya
Avstånd från stationen: VSV 6074kmKJFK - New Your (JFK)
Uppdaterad: 2021-12-07 16:51
 Vind från NV
Vind: NV 15 km/h
Vindby: 26 km/h
Temperatur: 5°C
Vindavkylning: 2°C
Daggpunkt: -7°C
Luftfuktighet: 42%
Barometer: 1022 hPa
Moln: Övervägande molnigt
Sikt: 16 km
Molninformation: Några få moln 1463 m
Några få moln 6096 m
Övervägande molnigt 7925 m
2021/12/07 15:51 KJFK 071551Z 31008G14KT 10SM FEW048 FEW200 BKN260 05/M07 A3018 RMK AO2 SLP219 T00501072
Övervägande molnigt
Övervägande molnigt
  Visa detaljer för New Your (JFK)
Avstånd från stationen: VSV 8848kmKLAX - Los Angeles International Airport
Uppdaterad: 2021-12-07 16:53
 Vind från varierande
Vind: varierande 6 km/h
Temperatur: 14°C
Daggpunkt: 11°C
Luftfuktighet: 82%
Barometer: 1014.9 hPa
Summering: Dimmigt
Moln: Genommulet
Sikt: 10 km
Molninformation: Övervägande molnigt 549 m
Genommulet 3658 m
2021/12/07 15:53 KLAX 071553Z VRB03KT 6SM BR BKN018 OVC120 14/11 A2997 RMK AO2 RAE32 SLP148 P0000 T01440111
Dimmigt, Genommulet
Dimmigt
Genommulet
  Visa detaljer för Los Angeles International Airport
Avstånd från stationen: SO 4968kmOMDB - Dubai International Airport
Uppdaterad: 2021-12-07 17:00
 Vind från ONO
Vind: ONO 13 km/h
Temperatur: 25°C
Daggpunkt: 17°C
Luftfuktighet: 61%
Barometer: 1018 hPa
Moln: Några få moln
Sikt: 10 km
Molninformation: Några få moln 914 m
2021/12/07 16:00 OMDB 071600Z 06007KT 040V110 9999 FEW030 25/17 Q1018 NOSIG
Några få moln
Några få moln
  Visa detaljer för Dubai International Airport
Avstånd från stationen: OSO 8570kmRJTT - Tokyo International Airport
Uppdaterad: 2021-12-07 16:30
 Vind från N
Vind: N 37 km/h
Temperatur: 12°C
Daggpunkt: 10°C
Luftfuktighet: 88%
Barometer: 1015 hPa
Summering: Lätt regn, Showers
Moln: Övervägande molnigt
Sikt: 8 km
Molninformation: Några få moln 305 m
Övervägande molnigt 366 m
Övervägande molnigt 610 m
2021/12/07 15:30 RJTT 071530Z 35020KT 8000 -SHRA FEW010 BKN012 BKN020 12/10 Q1015 TEMPO 35024G34KT 4000 RA BR FEW005 BKN008 RMK 1ST010 5CU012 7CU020 A2998
Lätt regn, Showers, Övervägande molnigt
Lätt regn
Showers
Övervägande molnigt
  Visa detaljer för Tokyo International Airport
Avstånd från stationen: OSO 7125kmZBAA - Peking (Beijing Capital)
Uppdaterad: 2021-12-07 16:00
Ej aktuell
 Vind från calm
Vind: Vindstilla
Temperatur: -3°C
Daggpunkt: -6°C
Luftfuktighet: 80%
Barometer: 1033 hPa
Summering: Klart
Sikt: mer än 10 km
2021/12/07 15:00 ZBAA 071500Z 00000MPS CAVOK M03/M06 Q1033 NOSIG
Klart
Klart
  Visa detaljer för Peking (Beijing Capital)
VÄDER KURIOSA -  One Inch of RainOne inch of rain over one square mile equals to 17.4 million gallons of water.